»·PEaware :: N6507W KDAG-KEED

N6507W :: KDAG-KEED

FLIGHT INFORMATION

Flight Status: Arrived
Operator: Privately registered:
United States
More flights under this callsign
Pilot: Jukka N. (18040)
Aircraft: PIPER PA-28 CHEROKEE ARCHER
(PA28)
More flights by this aircraft type
Origin: KDAG Barstow-Daggett
United States
Destination: KEED Needles
United States
More flights between these airports :: More routes between these airports
Route:
File this flight plan on PilotEdge
Remarks:
Altitude:
(Current/Filed)
5,500ft
Speed:
(Current/Filed)
120kts
Departed: 14-Mar-19 09:02 AM
Arrived: 14-Mar-19 10:17 AM
Distance/Time
Traveled:
107nm/1:15
Distance/Time
To Go:
Arrived

Flight Plot

Page will automatically refresh every two minutes.

Flight plan parsing failed; only flown route is shown


Map Options




Map Legend


Flown Route
Filed Route
Departure Airport
Arrival Airport
Navaid (VOR, NDB)
Fix

Horizontal Profiles

Position Reports

Time Latitude Longitude Heading Altitude Ground
Speed
14-Mar-19 08:40 34.856940 -116.790736 267 1927ft 0kts
14-Mar-19 08:41 34.856940 -116.790736 267 1927ft 0kts
14-Mar-19 08:42 34.856940 -116.790736 267 1927ft 0kts
14-Mar-19 08:43 34.856940 -116.790736 267 1927ft 0kts
14-Mar-19 08:44 34.856940 -116.790736 267 1927ft 0kts
14-Mar-19 08:45 34.856940 -116.790736 267 1927ft 0kts
14-Mar-19 08:46 34.856940 -116.790736 267 1927ft 0kts
14-Mar-19 08:47 34.856940 -116.790736 267 1927ft 0kts
14-Mar-19 08:48 34.856940 -116.790736 267 1927ft 0kts
14-Mar-19 08:49 34.856940 -116.790736 267 1927ft 0kts
14-Mar-19 08:50 34.856940 -116.790736 267 1927ft 0kts
14-Mar-19 08:51 34.856939 -116.790762 267 1927ft 0kts
14-Mar-19 08:52 34.855981 -116.790912 195 1927ft 0kts
14-Mar-19 08:53 34.855407 -116.791033 208 1927ft 10kts
14-Mar-19 08:54 34.852848 -116.793436 230 1927ft 14kts
14-Mar-19 08:55 34.852227 -116.797576 214 1927ft 0kts
14-Mar-19 08:56 34.852228 -116.797576 214 1927ft 0kts
14-Mar-19 08:57 34.852228 -116.797576 214 1927ft 0kts
14-Mar-19 08:58 34.852228 -116.797576 214 1927ft 0kts
14-Mar-19 08:59 34.852228 -116.797576 214 1927ft 0kts
14-Mar-19 09:00 34.851431 -116.797028 90 1927ft 18kts
14-Mar-19 09:01 34.852410 -116.774673 86 2681ft 87kts
14-Mar-19 09:02 34.851277 -116.740806 91 3561ft 105kts
14-Mar-19 09:03 34.845603 -116.715509 111 4124ft 109kts
14-Mar-19 09:04 34.834943 -116.700398 115 4355ft 107kts
14-Mar-19 09:05 34.830646 -116.676003 85 4467ft 109kts
14-Mar-19 09:06 34.828865 -116.637859 95 4475ft 109kts
14-Mar-19 09:07 34.827051 -116.600154 93 4461ft 113kts
14-Mar-19 09:08 34.823010 -116.560845 92 4468ft 119kts
14-Mar-19 09:09 34.815610 -116.521330 93 4606ft 114kts
14-Mar-19 09:10 34.810503 -116.483232 101 4754ft 112kts
14-Mar-19 09:11 34.802022 -116.445764 99 4730ft 125kts
14-Mar-19 09:12 34.791208 -116.405882 103 4731ft 132kts
14-Mar-19 09:13 34.775903 -116.365955 106 4759ft 129kts
14-Mar-19 09:14 34.759193 -116.327513 108 4822ft 127kts
14-Mar-19 09:15 34.743240 -116.291030 101 4993ft 117kts
14-Mar-19 09:16 34.736195 -116.251011 88 4652ft 129kts
14-Mar-19 09:17 34.730362 -116.201551 84 3751ft 160kts
14-Mar-19 09:18 34.728796 -116.149873 89 2808ft 146kts
14-Mar-19 09:19 34.729019 -116.105524 74 2686ft 123kts
14-Mar-19 09:20 34.729053 -116.062257 82 3125ft 131kts
14-Mar-19 09:21 34.729164 -116.022077 76 4165ft 114kts
14-Mar-19 09:22 34.730278 -115.983507 74 5079ft 119kts
14-Mar-19 09:24 34.732221 -115.943294 63 5917ft 116kts
14-Mar-19 09:25 34.737170 -115.903727 64 6691ft 119kts
14-Mar-19 09:26 34.742068 -115.863619 71 7384ft 126kts
14-Mar-19 09:27 34.741655 -115.820183 68 8013ft 126kts
14-Mar-19 09:28 34.743640 -115.777609 72 8609ft 129kts
14-Mar-19 09:29 34.738333 -115.731320 93 8126ft 145kts
14-Mar-19 09:30 34.729274 -115.685554 82 7480ft 133kts
14-Mar-19 09:31 34.727011 -115.641877 80 6850ft 129kts
14-Mar-19 09:32 34.723293 -115.599031 64 6297ft 117kts
14-Mar-19 09:33 34.731107 -115.560831 56 6035ft 121kts
14-Mar-19 09:34 34.744946 -115.523137 49 5601ft 115kts
14-Mar-19 09:35 34.759363 -115.488808 50 5416ft 112kts
14-Mar-19 09:36 34.771572 -115.454376 44 5254ft 104kts
14-Mar-19 09:37 34.788466 -115.428151 53 5342ft 107kts
14-Mar-19 09:38 34.795812 -115.389288 74 5805ft 125kts
14-Mar-19 09:39 34.798187 -115.344613 78 5975ft 135kts
14-Mar-19 09:40 34.797034 -115.299322 71 6055ft 122kts
14-Mar-19 09:41 34.801349 -115.256108 78 5505ft 130kts
14-Mar-19 09:42 34.803283 -115.212856 72 5067ft 125kts
14-Mar-19 09:42 34.811721 -115.181220 50 4753ft 117kts
14-Mar-19 09:44 34.818162 -115.134459 76 4389ft 117kts
14-Mar-19 09:44 34.822215 -115.102321 75 4273ft 114kts
14-Mar-19 09:45 34.825462 -115.065836 73 4409ft 102kts
14-Mar-19 09:47 34.826914 -115.025088 70 4644ft 96kts
14-Mar-19 09:47 34.830194 -114.996245 66 4547ft 112kts
14-Mar-19 09:48 34.826034 -114.955510 91 4363ft 119kts
14-Mar-19 09:49 34.817151 -114.916810 107 4367ft 124kts
14-Mar-19 09:50 34.801689 -114.879550 113 4374ft 125kts
14-Mar-19 09:51 34.782883 -114.844296 117 4413ft 127kts
14-Mar-19 09:52 34.762260 -114.809283 112 4404ft 126kts
14-Mar-19 09:53 34.756560 -114.771411 81 4519ft 106kts
14-Mar-19 09:54 34.756851 -114.734484 73 4550ft 107kts
14-Mar-19 09:55 34.753000 -114.696559 81 4454ft 118kts
14-Mar-19 09:56 34.753601 -114.657301 82 3369ft 122kts
14-Mar-19 09:57 34.757283 -114.619771 40 2024ft 98kts
14-Mar-19 09:58 34.774655 -114.627059 299 1790ft 97kts
14-Mar-19 09:59 34.769047 -114.641058 87 1565ft 94kts
14-Mar-19 10:00 34.757150 -114.614682 82 1571ft 81kts
14-Mar-19 10:01 34.770489 -114.613668 307 2025ft 105kts
14-Mar-19 10:02 34.780939 -114.644545 247 1983ft 95kts
14-Mar-19 10:03 34.764897 -114.628975 107 1017ft 94kts
14-Mar-19 10:04 34.753368 -114.605939 107 1546ft 90kts
14-Mar-19 10:05 34.764269 -114.593811 343 2088ft 83kts
14-Mar-19 10:06 34.775433 -114.617809 234 1762ft 126kts
14-Mar-19 10:07 34.744281 -114.635624 192 1925ft 122kts
14-Mar-19 10:08 34.751387 -114.624093 12 1756ft 88kts
14-Mar-19 10:09 34.768225 -114.611267 32 1508ft 72kts
14-Mar-19 10:10 34.788214 -114.615405 305 1324ft 104kts
14-Mar-19 10:11 34.793138 -114.612000 168 1482ft 149kts
14-Mar-19 10:12 34.758725 -114.627021 206 1133ft 119kts
14-Mar-19 10:13 34.736792 -114.650178 274 2012ft 102kts
14-Mar-19 10:14 34.751377 -114.641124 55 1860ft 87kts
14-Mar-19 10:15 34.767175 -114.621209 28 994ft 65kts
14-Mar-19 10:16 34.774018 -114.615704 166 984ft 16kts
14-Mar-19 10:17 34.765780 -114.621067 209 984ft 24kts
14-Mar-19 10:18 34.763389 -114.620591 211 984ft 0kts
14-Mar-19 10:19 34.763389 -114.620591 212 984ft 0kts
14-Mar-19 10:20 34.763389 -114.620591 212 984ft 0kts

Navigation Log

Ident Type
Flight plan parsing failed, navigation log unavailable